createdAt,value
2019-05-14T00:00:09.247Z,472.0000
2019-05-14T00:00:17.460Z,476.0000
2019-05-14T00:00:27.769Z,470.0000
2019-05-14T00:00:38.255Z,478.0000
2019-05-14T00:00:51.982Z,473.0000
2019-05-14T00:00:58.277Z,467.0000
2019-05-14T00:01:11.730Z,469.0000
2019-05-14T00:01:18.255Z,458.0000
2019-05-14T00:01:31.302Z,467.0000
2019-05-14T00:01:38.234Z,467.0000
2019-05-14T00:01:48.453Z,477.0000
2019-05-14T00:01:58.272Z,471.0000
2019-05-14T00:02:11.960Z,479.0000
2019-05-14T00:02:18.245Z,475.0000
2019-05-14T00:02:29.251Z,468.0000
2019-05-14T00:02:38.226Z,471.0000
2019-05-14T00:02:51.976Z,490.0000
2019-05-14T00:03:02.145Z,477.0000
2019-05-14T00:03:11.198Z,476.0000
2019-05-14T00:03:21.928Z,472.0000
2019-05-14T00:03:31.140Z,461.0000
2019-05-14T00:03:41.424Z,470.0000
2019-05-14T00:03:51.452Z,470.0000
2019-05-14T00:04:02.121Z,477.0000
2019-05-14T00:04:11.759Z,474.0000
2019-05-14T00:04:22.028Z,483.0000
2019-05-14T00:04:28.246Z,483.0000
2019-05-14T00:04:42.265Z,483.0000
2019-05-14T00:04:48.244Z,488.0000
2019-05-14T00:05:01.692Z,493.0000
2019-05-14T00:05:08.244Z,481.0000
2019-05-14T00:05:21.460Z,493.0000
2019-05-14T00:05:28.265Z,486.0000
2019-05-14T00:05:39.263Z,482.0000
2019-05-14T00:05:48.251Z,487.0000
2019-05-14T00:05:59.237Z,480.0000
2019-05-14T00:06:08.275Z,483.0000
2019-05-14T00:06:19.266Z,477.0000
2019-05-14T00:06:28.239Z,469.0000
2019-05-14T00:06:41.578Z,483.0000
2019-05-14T00:06:48.235Z,479.0000
2019-05-14T00:07:01.023Z,475.0000
2019-05-14T00:07:08.264Z,483.0000
2019-05-14T00:07:19.244Z,475.0000
2019-05-14T00:07:28.709Z,474.0000
2019-05-14T00:07:41.422Z,480.0000
2019-05-14T00:07:48.254Z,477.0000
2019-05-14T00:07:59.250Z,482.0000
2019-05-14T00:08:08.235Z,490.0000
2019-05-14T00:08:19.249Z,487.0000
2019-05-14T00:08:28.235Z,486.0000
2019-05-14T00:08:41.631Z,474.0000
2019-05-14T00:08:48.245Z,485.0000
2019-05-14T00:09:01.386Z,480.0000
2019-05-14T00:09:08.255Z,468.0000
2019-05-14T00:09:21.398Z,481.0000
2019-05-14T00:09:28.302Z,477.0000
2019-05-14T00:09:41.383Z,478.0000
2019-05-14T00:09:48.255Z,490.0000
2019-05-14T00:10:01.089Z,473.0000
2019-05-14T00:10:07.465Z,481.0000
2019-05-14T00:10:18.227Z,474.0000
2019-05-14T00:10:28.230Z,479.0000
2019-05-14T00:10:38.063Z,472.0000
2019-05-14T00:10:49.282Z,479.0000
2019-05-14T00:10:58.452Z,477.0000
2019-05-14T00:11:08.225Z,490.0000
2019-05-14T00:11:19.248Z,483.0000
2019-05-14T00:11:28.248Z,483.0000
2019-05-14T00:11:39.253Z,485.0000
2019-05-14T00:11:51.289Z,484.0000
2019-05-14T00:12:02.937Z,497.0000
2019-05-14T00:12:11.359Z,481.0000
2019-05-14T00:12:19.231Z,500.0000
2019-05-14T00:12:31.488Z,481.0000
2019-05-14T00:12:38.248Z,479.0000
2019-05-14T00:12:51.242Z,480.0000
2019-05-14T00:12:58.148Z,481.0000
2019-05-14T00:13:12.057Z,480.0000
2019-05-14T00:13:18.245Z,470.0000
2019-05-14T00:13:29.253Z,483.0000
2019-05-14T00:13:38.236Z,487.0000
2019-05-14T00:13:49.234Z,485.0000
2019-05-14T00:13:58.234Z,476.0000
2019-05-14T00:14:11.441Z,487.0000
2019-05-14T00:14:18.257Z,484.0000
2019-05-14T00:14:37.234Z,499.0000
2019-05-14T00:14:40.366Z,472.0000
2019-05-14T00:14:48.231Z,481.0000
2019-05-14T00:14:58.253Z,495.0000
2019-05-14T00:15:11.069Z,482.0000
2019-05-14T00:15:18.230Z,493.0000
2019-05-14T00:15:29.230Z,477.0000
2019-05-14T00:15:38.255Z,483.0000
2019-05-14T00:15:49.235Z,485.0000
2019-05-14T00:15:58.245Z,506.0000
2019-05-14T00:16:09.230Z,497.0000
2019-05-14T00:16:18.247Z,485.0000
2019-05-14T00:16:28.067Z,499.0000
2019-05-14T00:16:38.240Z,488.0000
2019-05-14T00:16:51.188Z,482.0000
2019-05-14T00:16:59.309Z,481.0000
2019-05-14T00:17:11.200Z,483.0000
2019-05-14T00:17:21.509Z,481.0000
2019-05-14T00:17:29.246Z,494.0000
2019-05-14T00:17:38.237Z,480.0000
2019-05-14T00:17:49.240Z,497.0000
2019-05-14T00:17:58.226Z,493.0000
2019-05-14T00:18:11.622Z,477.0000
2019-05-14T00:18:22.231Z,484.0000
2019-05-14T00:18:31.301Z,490.0000
2019-05-14T00:18:42.012Z,493.0000
2019-05-14T00:18:48.250Z,504.0000
2019-05-14T00:19:01.645Z,491.0000
2019-05-14T00:19:08.236Z,495.0000
2019-05-14T00:19:21.470Z,486.0000
2019-05-14T00:19:28.242Z,493.0000
2019-05-14T00:19:41.375Z,488.0000
2019-05-14T00:19:48.245Z,483.0000
2019-05-14T00:20:07.220Z,502.0000
2019-05-14T00:20:10.081Z,497.0000
2019-05-14T00:20:19.247Z,479.0000
2019-05-14T00:20:28.241Z,495.0000
2019-05-14T00:20:39.247Z,488.0000
2019-05-14T00:20:48.237Z,481.0000
2019-05-14T00:21:01.455Z,477.0000
2019-05-14T00:21:08.275Z,486.0000
2019-05-14T00:21:21.136Z,491.0000
2019-05-14T00:21:28.236Z,486.0000
2019-05-14T00:21:39.239Z,475.0000
2019-05-14T00:21:48.250Z,490.0000
2019-05-14T00:21:59.270Z,504.0000
2019-05-14T00:22:08.250Z,499.0000
2019-05-14T00:22:19.245Z,500.0000
2019-05-14T00:22:28.243Z,488.0000
2019-05-14T00:22:38.695Z,490.0000
2019-05-14T00:22:48.246Z,486.0000
2019-05-14T00:23:01.258Z,493.0000
2019-05-14T00:23:08.253Z,486.0000
2019-05-14T00:23:21.487Z,479.0000
2019-05-14T00:23:28.270Z,488.0000
2019-05-14T00:23:39.252Z,488.0000
2019-05-14T00:23:48.241Z,483.0000
2019-05-14T00:23:59.245Z,478.0000
2019-05-14T00:24:08.259Z,482.0000
2019-05-14T00:24:21.580Z,485.0000
2019-05-14T00:24:32.330Z,488.0000
2019-05-14T00:24:41.270Z,493.0000
2019-05-14T00:24:51.948Z,490.0000
2019-05-14T00:24:58.257Z,499.0000
2019-05-14T00:25:11.700Z,487.0000
2019-05-14T00:25:18.284Z,480.0000
2019-05-14T00:25:31.330Z,487.0000
2019-05-14T00:25:38.252Z,492.0000
2019-05-14T00:25:49.254Z,478.0000
2019-05-14T00:25:58.262Z,490.0000
2019-05-14T00:26:09.242Z,481.0000
2019-05-14T00:26:18.241Z,482.0000
2019-05-14T00:26:29.256Z,494.0000
2019-05-14T00:26:38.257Z,482.0000
2019-05-14T00:26:51.564Z,481.0000
2019-05-14T00:26:58.259Z,483.0000
2019-05-14T00:27:11.358Z,500.0000
2019-05-14T00:27:21.827Z,486.0000
2019-05-14T00:27:31.064Z,490.0000
2019-05-14T00:27:38.246Z,495.0000
2019-05-14T00:27:49.226Z,497.0000
2019-05-14T00:27:58.254Z,497.0000
2019-05-14T00:28:09.246Z,497.0000
2019-05-14T00:28:18.226Z,493.0000
2019-05-14T00:28:31.543Z,489.0000
2019-05-14T00:28:38.227Z,484.0000
2019-05-14T00:28:51.037Z,502.0000
2019-05-14T00:28:58.236Z,501.0000
2019-05-14T00:29:08.105Z,485.0000
2019-05-14T00:29:17.467Z,488.0000
2019-05-14T00:29:29.241Z,488.0000
2019-05-14T00:29:41.450Z,495.0000
2019-05-14T00:29:51.588Z,490.0000
2019-05-14T00:29:58.248Z,491.0000
2019-05-14T00:30:11.328Z,489.0000
2019-05-14T00:30:18.245Z,505.0000
2019-05-14T00:30:31.632Z,502.0000
2019-05-14T00:30:38.214Z,495.0000
2019-05-14T00:30:49.257Z,513.0000
2019-05-14T00:31:02.922Z,481.0000
2019-05-14T00:31:09.232Z,489.0000
2019-05-14T00:31:21.347Z,502.0000
2019-05-14T00:31:28.239Z,502.0000
2019-05-14T00:31:42.530Z,486.0000
2019-05-14T00:31:48.270Z,493.0000
2019-05-14T00:31:59.258Z,497.0000
2019-05-14T00:32:08.250Z,496.0000
2019-05-14T00:32:21.868Z,502.0000
2019-05-14T00:32:28.235Z,511.0000
2019-05-14T00:32:41.442Z,500.0000
2019-05-14T00:32:48.257Z,500.0000
2019-05-14T00:33:01.210Z,490.0000
2019-05-14T00:33:12.237Z,488.0000
2019-05-14T00:33:19.245Z,489.0000
2019-05-14T00:33:28.259Z,483.0000
2019-05-14T00:33:39.255Z,502.0000
2019-05-14T00:33:48.379Z,497.0000
2019-05-14T00:34:01.621Z,484.0000
2019-05-14T00:34:11.741Z,490.0000
2019-05-14T00:34:21.347Z,496.0000
2019-05-14T00:34:28.237Z,491.0000
2019-05-14T00:34:39.234Z,481.0000
2019-05-14T00:34:48.254Z,490.0000
2019-05-14T00:34:59.250Z,478.0000
2019-05-14T00:35:08.243Z,488.0000
2019-05-14T00:35:21.371Z,489.0000
2019-05-14T00:35:29.326Z,481.0000
2019-05-14T00:35:41.203Z,490.0000
2019-05-14T00:35:51.293Z,491.0000
2019-05-14T00:35:59.242Z,481.0000
2019-05-14T00:36:08.247Z,493.0000
2019-05-14T00:36:21.574Z,486.0000
2019-05-14T00:36:28.268Z,483.0000
2019-05-14T00:36:41.747Z,492.0000
2019-05-14T00:36:52.418Z,493.0000
2019-05-14T00:37:01.403Z,479.0000
2019-05-14T00:37:11.494Z,483.0000
2019-05-14T00:37:21.629Z,483.0000
2019-05-14T00:37:32.173Z,474.0000
2019-05-14T00:37:41.495Z,485.0000
2019-05-14T00:37:49.230Z,497.0000
2019-05-14T00:37:58.244Z,490.0000
2019-05-14T00:38:08.777Z,506.0000
2019-05-14T00:38:18.236Z,480.0000
2019-05-14T00:38:31.371Z,481.0000
2019-05-14T00:38:38.248Z,480.0000
2019-05-14T00:38:51.184Z,484.0000
2019-05-14T00:38:57.896Z,478.0000
2019-05-14T00:39:11.210Z,481.0000
2019-05-14T00:39:18.230Z,489.0000
2019-05-14T00:39:29.257Z,497.0000
2019-05-14T00:39:38.246Z,496.0000
2019-05-14T00:39:49.267Z,497.0000
2019-05-14T00:39:58.247Z,505.0000
2019-05-14T00:40:11.580Z,502.0000
2019-05-14T00:40:18.258Z,515.0000
2019-05-14T00:40:31.238Z,506.0000
2019-05-14T00:40:38.268Z,490.0000
2019-05-14T00:40:51.191Z,502.0000
2019-05-14T00:40:58.228Z,492.0000
2019-05-14T00:41:11.148Z,489.0000
2019-05-14T00:41:18.261Z,493.0000
2019-05-14T00:41:31.144Z,492.0000
2019-05-14T00:41:42.720Z,499.0000
2019-05-14T00:41:51.059Z,495.0000
2019-05-14T00:41:58.261Z,479.0000
2019-05-14T00:42:09.244Z,481.0000
2019-05-14T00:42:18.260Z,489.0000
2019-05-14T00:42:29.241Z,495.0000
2019-05-14T00:42:41.134Z,490.0000
2019-05-14T00:42:49.283Z,474.0000
2019-05-14T00:42:58.263Z,494.0000
2019-05-14T00:43:11.270Z,492.0000
2019-05-14T00:43:21.523Z,495.0000
2019-05-14T00:43:29.217Z,484.0000
2019-05-14T00:43:41.567Z,477.0000
2019-05-14T00:43:51.203Z,500.0000
2019-05-14T00:44:01.960Z,495.0000
2019-05-14T00:44:08.255Z,495.0000
2019-05-14T00:44:21.540Z,481.0000
2019-05-14T00:44:28.249Z,489.0000
2019-05-14T00:44:53.513Z,486.0000
2019-05-14T00:44:54.617Z,497.0000
2019-05-14T00:44:58.263Z,476.0000
2019-05-14T00:45:08.229Z,483.0000
2019-05-14T00:45:19.239Z,489.0000
2019-05-14T00:45:28.252Z,501.0000
2019-05-14T00:45:41.609Z,512.0000
2019-05-14T00:45:48.273Z,514.0000
2019-05-14T00:46:01.509Z,509.0000
2019-05-14T00:46:08.254Z,511.0000
2019-05-14T00:46:21.157Z,486.0000
2019-05-14T00:46:28.224Z,488.0000
2019-05-14T00:46:41.069Z,483.0000
2019-05-14T00:46:48.267Z,480.0000
2019-05-14T00:47:03.745Z,503.0000
2019-05-14T00:47:08.226Z,504.0000
2019-05-14T00:47:21.576Z,512.0000
2019-05-14T00:47:28.243Z,475.0000
2019-05-14T00:47:41.571Z,507.0000
2019-05-14T00:47:48.241Z,493.0000
2019-05-14T00:48:01.312Z,486.0000
2019-05-14T00:48:08.254Z,499.0000
2019-05-14T00:48:18.180Z,488.0000
2019-05-14T00:48:31.772Z,488.0000
2019-05-14T00:48:39.269Z,496.0000
2019-05-14T00:48:48.242Z,490.0000
2019-05-14T00:48:58.451Z,477.0000
2019-05-14T00:49:08.251Z,494.0000
2019-05-14T00:49:21.124Z,483.0000
2019-05-14T00:49:31.678Z,500.0000
2019-05-14T00:49:42.258Z,492.0000
2019-05-14T00:49:53.821Z,490.0000
2019-05-14T00:50:02.718Z,495.0000
2019-05-14T00:50:11.253Z,481.0000
2019-05-14T00:50:18.259Z,488.0000
2019-05-14T00:50:31.676Z,504.0000
2019-05-14T00:50:38.230Z,492.0000
2019-05-14T00:50:51.435Z,474.0000
2019-05-14T00:50:58.248Z,487.0000
2019-05-14T00:51:13.735Z,489.0000
2019-05-14T00:51:18.227Z,487.0000
2019-05-14T00:51:29.259Z,495.0000
2019-05-14T00:51:38.258Z,495.0000
2019-05-14T00:51:49.250Z,499.0000
2019-05-14T00:51:58.256Z,501.0000
2019-05-14T00:52:11.502Z,496.0000
2019-05-14T00:52:18.231Z,495.0000
2019-05-14T00:52:31.367Z,483.0000
2019-05-14T00:52:38.276Z,495.0000
2019-05-14T00:52:51.491Z,490.0000
2019-05-14T00:52:58.243Z,490.0000
2019-05-14T00:53:11.676Z,491.0000
2019-05-14T00:53:18.231Z,502.0000
2019-05-14T00:53:31.808Z,493.0000
2019-05-14T00:53:38.250Z,484.0000
2019-05-14T00:53:53.705Z,495.0000
2019-05-14T00:53:58.237Z,488.0000
2019-05-14T00:54:11.135Z,495.0000
2019-05-14T00:54:18.246Z,500.0000
2019-05-14T00:54:29.233Z,503.0000
2019-05-14T00:54:38.242Z,495.0000
2019-05-14T00:54:49.254Z,495.0000
2019-05-14T00:54:58.266Z,500.0000
2019-05-14T00:55:08.203Z,496.0000
2019-05-14T00:55:18.249Z,497.0000
2019-05-14T00:55:28.745Z,495.0000
2019-05-14T00:55:42.098Z,498.0000
2019-05-14T00:55:51.346Z,504.0000
2019-05-14T00:55:58.237Z,490.0000
2019-05-14T00:56:08.414Z,508.0000
2019-05-14T00:56:19.032Z,505.0000
2019-05-14T00:56:31.973Z,499.0000
2019-05-14T00:56:38.253Z,502.0000
2019-05-14T00:56:51.983Z,515.0000
2019-05-14T00:57:01.462Z,506.0000
2019-05-14T00:57:11.579Z,493.0000
2019-05-14T00:57:21.114Z,491.0000
2019-05-14T00:57:28.251Z,497.0000
2019-05-14T00:57:42.583Z,499.0000
2019-05-14T00:57:48.247Z,498.0000
2019-05-14T00:57:59.249Z,505.0000
2019-05-14T00:58:12.277Z,500.0000
2019-05-14T00:58:21.583Z,500.0000
2019-05-14T00:58:28.232Z,488.0000
2019-05-14T00:58:41.342Z,500.0000
2019-05-14T00:58:48.230Z,504.0000
2019-05-14T00:59:01.251Z,494.0000
2019-05-14T00:59:08.232Z,497.0000
2019-05-14T00:59:21.512Z,514.0000
2019-05-14T00:59:28.244Z,502.0000
2019-05-14T00:59:41.437Z,499.0000
2019-05-14T00:59:48.238Z,503.0000
2019-05-14T01:00:01.092Z,503.0000
2019-05-14T01:00:08.244Z,497.0000
2019-05-14T01:00:19.246Z,501.0000
2019-05-14T01:00:28.250Z,492.0000
2019-05-14T01:00:39.237Z,492.0000
2019-05-14T01:00:48.257Z,500.0000
2019-05-14T01:01:01.338Z,501.0000
2019-05-14T01:01:08.249Z,495.0000
2019-05-14T01:01:21.329Z,501.0000
2019-05-14T01:01:28.245Z,487.0000
2019-05-14T01:01:37.712Z,504.0000
2019-05-14T01:01:51.445Z,505.0000
2019-05-14T01:01:59.250Z,506.0000
2019-05-14T01:02:08.223Z,500.0000
2019-05-14T01:02:21.624Z,497.0000
2019-05-14T01:02:28.262Z,497.0000
2019-05-14T01:02:38.443Z,495.0000
2019-05-14T01:02:48.239Z,492.0000
2019-05-14T01:02:59.259Z,495.0000
2019-05-14T01:03:08.249Z,502.0000
2019-05-14T01:03:21.575Z,520.0000
2019-05-14T01:03:32.309Z,510.0000
2019-05-14T01:03:41.355Z,506.0000
2019-05-14T01:03:52.101Z,513.0000
2019-05-14T01:03:58.241Z,521.0000
2019-05-14T01:04:11.739Z,510.0000
2019-05-14T01:04:18.263Z,513.0000
2019-05-14T01:04:31.207Z,504.0000
2019-05-14T01:04:38.232Z,508.0000
2019-05-14T01:04:51.384Z,510.0000
2019-05-14T01:04:58.244Z,516.0000
2019-05-14T01:05:09.238Z,514.0000
2019-05-14T01:05:18.224Z,513.0000
2019-05-14T01:05:29.253Z,509.0000
2019-05-14T01:05:38.273Z,518.0000
2019-05-14T01:05:49.270Z,520.0000
2019-05-14T01:05:58.231Z,509.0000
2019-05-14T01:06:11.294Z,510.0000
2019-05-14T01:06:18.261Z,513.0000
2019-05-14T01:06:31.522Z,524.0000
2019-05-14T01:06:38.223Z,514.0000
2019-05-14T01:06:51.141Z,518.0000
2019-05-14T01:06:58.241Z,513.0000
2019-05-14T01:07:11.672Z,506.0000
2019-05-14T01:07:18.258Z,507.0000
2019-05-14T01:07:33.787Z,509.0000
2019-05-14T01:07:38.246Z,518.0000
2019-05-14T01:07:51.210Z,511.0000
2019-05-14T01:07:58.261Z,515.0000
2019-05-14T01:08:09.247Z,503.0000
2019-05-14T01:08:18.249Z,516.0000
2019-05-14T01:08:29.237Z,513.0000
2019-05-14T01:08:38.258Z,510.0000
2019-05-14T01:08:49.241Z,508.0000
2019-05-14T01:08:58.250Z,518.0000
2019-05-14T01:09:11.291Z,505.0000
2019-05-14T01:09:22.817Z,515.0000
2019-05-14T01:09:31.464Z,506.0000
2019-05-14T01:09:38.248Z,518.0000
2019-05-14T01:09:48.188Z,509.0000
2019-05-14T01:09:58.244Z,493.0000
2019-05-14T01:10:08.728Z,505.0000
2019-05-14T01:10:18.293Z,512.0000
2019-05-14T01:10:31.343Z,511.0000
2019-05-14T01:10:41.779Z,515.0000
2019-05-14T01:10:51.158Z,502.0000
2019-05-14T01:11:01.588Z,518.0000
2019-05-14T01:11:08.254Z,519.0000
2019-05-14T01:11:21.956Z,498.0000
2019-05-14T01:11:28.249Z,509.0000
2019-05-14T01:11:39.242Z,513.0000
2019-05-14T01:11:48.237Z,518.0000
2019-05-14T01:12:01.627Z,502.0000
2019-05-14T01:12:08.254Z,509.0000
2019-05-14T01:12:21.267Z,511.0000
2019-05-14T01:12:28.255Z,502.0000
2019-05-14T01:12:41.357Z,518.0000
2019-05-14T01:12:48.245Z,516.0000
2019-05-14T01:13:01.179Z,513.0000
2019-05-14T01:13:08.247Z,526.0000
2019-05-14T01:13:19.246Z,515.0000
2019-05-14T01:13:31.297Z,517.0000
2019-05-14T01:13:41.494Z,518.0000
2019-05-14T01:13:48.220Z,520.0000
2019-05-14T01:14:01.497Z,510.0000
2019-05-14T01:14:08.235Z,504.0000
2019-05-14T01:14:21.123Z,514.0000
2019-05-14T01:14:28.267Z,515.0000
2019-05-14T01:14:39.252Z,516.0000
2019-05-14T01:14:51.485Z,507.0000
2019-05-14T01:15:07.786Z,513.0000
2019-05-14T01:15:13.286Z,514.0000
2019-05-14T01:15:21.506Z,521.0000
2019-05-14T01:15:28.255Z,515.0000
2019-05-14T01:15:41.487Z,508.0000
2019-05-14T01:15:52.116Z,504.0000
2019-05-14T01:16:01.351Z,506.0000
2019-05-14T01:16:12.066Z,513.0000
2019-05-14T01:16:19.216Z,509.0000
2019-05-14T01:16:31.794Z,505.0000
2019-05-14T01:16:38.251Z,492.0000
2019-05-14T01:16:51.350Z,501.0000
2019-05-14T01:16:58.232Z,507.0000
2019-05-14T01:17:11.193Z,504.0000
2019-05-14T01:17:22.785Z,507.0000
2019-05-14T01:17:31.170Z,503.0000
2019-05-14T01:17:38.246Z,509.0000
2019-05-14T01:17:51.381Z,502.0000
2019-05-14T01:17:58.226Z,502.0000
2019-05-14T01:18:11.302Z,502.0000
2019-05-14T01:18:18.249Z,504.0000
2019-05-14T01:18:28.130Z,503.0000
2019-05-14T01:18:42.782Z,505.0000
2019-05-14T01:18:52.809Z,488.0000
2019-05-14T01:18:58.245Z,493.0000
2019-05-14T01:19:13.775Z,508.0000
2019-05-14T01:19:18.255Z,495.0000
2019-05-14T01:19:31.477Z,497.0000
2019-05-14T01:19:38.246Z,494.0000
2019-05-14T01:19:51.271Z,506.0000
2019-05-14T01:19:58.233Z,496.0000
2019-05-14T01:20:09.246Z,486.0000
2019-05-14T01:20:18.244Z,514.0000
2019-05-14T01:20:29.234Z,488.0000
2019-05-14T01:20:38.255Z,496.0000
2019-05-14T01:20:51.692Z,486.0000
2019-05-14T01:20:58.238Z,495.0000
2019-05-14T01:21:11.500Z,500.0000
2019-05-14T01:21:18.279Z,496.0000
2019-05-14T01:21:28.473Z,493.0000
2019-05-14T01:21:39.149Z,485.0000
2019-05-14T01:21:51.055Z,501.0000
2019-05-14T01:21:58.219Z,504.0000
2019-05-14T01:22:12.232Z,491.0000
2019-05-14T01:22:21.286Z,496.0000
2019-05-14T01:22:31.592Z,495.0000
2019-05-14T01:22:42.228Z,494.0000
2019-05-14T01:22:48.237Z,486.0000
2019-05-14T01:23:02.196Z,503.0000
2019-05-14T01:23:08.251Z,497.0000
2019-05-14T01:23:23.747Z,498.0000
2019-05-14T01:23:28.231Z,486.0000
2019-05-14T01:23:41.362Z,495.0000
2019-05-14T01:23:48.238Z,509.0000
2019-05-14T01:24:02.034Z,506.0000
2019-05-14T01:24:08.236Z,495.0000
2019-05-14T01:24:21.447Z,498.0000
2019-05-14T01:24:28.258Z,504.0000
2019-05-14T01:24:41.448Z,503.0000
2019-05-14T01:24:48.245Z,514.0000
2019-05-14T01:25:01.456Z,498.0000
2019-05-14T01:25:08.262Z,504.0000
2019-05-14T01:25:19.267Z,493.0000
2019-05-14T01:25:28.251Z,491.0000
2019-05-14T01:25:39.234Z,507.0000
2019-05-14T01:25:48.265Z,494.0000
2019-05-14T01:25:59.240Z,498.0000
2019-05-14T01:26:08.265Z,491.0000
2019-05-14T01:26:21.597Z,493.0000
2019-05-14T01:26:28.226Z,496.0000
2019-05-14T01:26:41.476Z,490.0000
2019-05-14T01:26:48.267Z,497.0000
2019-05-14T01:26:58.820Z,509.0000
2019-05-14T01:27:08.240Z,505.0000
2019-05-14T01:27:18.141Z,500.0000
2019-05-14T01:27:28.263Z,504.0000
2019-05-14T01:27:41.367Z,500.0000
2019-05-14T01:27:48.237Z,497.0000
2019-05-14T01:27:59.233Z,490.0000
2019-05-14T01:28:11.211Z,501.0000
2019-05-14T01:28:21.436Z,490.0000
2019-05-14T01:28:32.173Z,483.0000
2019-05-14T01:28:41.554Z,505.0000
2019-05-14T01:28:51.377Z,500.0000
2019-05-14T01:29:01.253Z,492.0000
2019-05-14T01:29:11.972Z,486.0000
2019-05-14T01:29:18.247Z,490.0000
2019-05-14T01:29:31.658Z,484.0000
2019-05-14T01:29:38.247Z,500.0000
2019-05-14T01:29:51.204Z,480.0000
2019-05-14T01:29:58.249Z,490.0000
2019-05-14T01:30:09.251Z,492.0000
2019-05-14T01:30:18.249Z,483.0000
2019-05-14T01:30:29.237Z,486.0000
2019-05-14T01:30:38.250Z,497.0000
2019-05-14T01:30:51.608Z,506.0000
2019-05-14T01:30:58.236Z,495.0000
2019-05-14T01:31:11.192Z,499.0000
2019-05-14T01:31:18.267Z,502.0000
2019-05-14T01:31:31.284Z,489.0000
2019-05-14T01:31:38.362Z,491.0000
2019-05-14T01:31:49.233Z,493.0000
2019-05-14T01:31:57.679Z,493.0000
2019-05-14T01:32:11.468Z,490.0000
2019-05-14T01:32:18.263Z,486.0000
2019-05-14T01:32:31.373Z,509.0000
2019-05-14T01:32:38.238Z,498.0000
2019-05-14T01:32:51.156Z,494.0000
2019-05-14T01:32:57.479Z,496.0000
2019-05-14T01:33:09.252Z,497.0000
2019-05-14T01:33:18.241Z,495.0000
2019-05-14T01:33:28.339Z,490.0000
2019-05-14T01:33:38.252Z,500.0000
2019-05-14T01:33:51.400Z,494.0000
2019-05-14T01:34:02.248Z,502.0000
2019-05-14T01:34:11.201Z,502.0000
2019-05-14T01:34:21.603Z,502.0000
2019-05-14T01:34:32.176Z,495.0000
2019-05-14T01:34:41.978Z,497.0000
2019-05-14T01:34:48.233Z,497.0000
2019-05-14T01:35:01.394Z,483.0000
2019-05-14T01:35:08.237Z,489.0000
2019-05-14T01:35:19.232Z,490.0000
2019-05-14T01:35:28.244Z,486.0000
2019-05-14T01:35:42.046Z,489.0000
2019-05-14T01:35:48.227Z,482.0000
2019-05-14T01:35:59.262Z,482.0000
2019-05-14T01:36:08.234Z,488.0000
2019-05-14T01:36:21.342Z,497.0000
2019-05-14T01:36:28.259Z,493.0000
2019-05-14T01:36:41.732Z,501.0000
2019-05-14T01:36:48.283Z,488.0000
2019-05-14T01:36:59.258Z,485.0000
2019-05-14T01:37:11.661Z,497.0000
2019-05-14T01:37:21.705Z,508.0000
2019-05-14T01:37:32.737Z,501.0000
2019-05-14T01:37:41.816Z,493.0000
2019-05-14T01:37:48.232Z,500.0000
2019-05-14T01:37:58.661Z,503.0000
2019-05-14T01:38:08.237Z,501.0000
2019-05-14T01:38:19.247Z,493.0000
2019-05-14T01:38:27.481Z,493.0000
2019-05-14T01:38:37.787Z,510.0000
2019-05-14T01:38:48.229Z,500.0000
2019-05-14T01:39:01.612Z,492.0000
2019-05-14T01:39:08.238Z,506.0000
2019-05-14T01:39:21.214Z,497.0000
2019-05-14T01:39:28.239Z,506.0000
2019-05-14T01:39:41.765Z,506.0000
2019-05-14T01:39:52.023Z,502.0000
2019-05-14T01:40:01.202Z,504.0000
2019-05-14T01:40:11.422Z,496.0000
2019-05-14T01:40:18.251Z,491.0000
2019-05-14T01:40:31.558Z,491.0000
2019-05-14T01:40:38.243Z,493.0000
2019-05-14T01:40:49.249Z,500.0000
2019-05-14T01:40:58.235Z,491.0000
2019-05-14T01:41:11.690Z,490.0000
2019-05-14T01:41:18.241Z,498.0000
2019-05-14T01:41:31.544Z,495.0000
2019-05-14T01:41:38.254Z,503.0000
2019-05-14T01:41:51.480Z,494.0000
2019-05-14T01:41:58.253Z,502.0000
2019-05-14T01:42:09.259Z,493.0000
2019-05-14T01:42:18.249Z,503.0000
2019-05-14T01:42:27.741Z,498.0000
2019-05-14T01:42:38.248Z,493.0000
2019-05-14T01:42:52.047Z,509.0000
2019-05-14T01:43:02.638Z,499.0000
2019-05-14T01:43:11.395Z,499.0000
2019-05-14T01:43:18.255Z,497.0000
2019-05-14T01:43:31.290Z,509.0000
2019-05-14T01:43:38.239Z,504.0000
2019-05-14T01:43:51.248Z,505.0000
2019-05-14T01:43:58.264Z,497.0000
2019-05-14T01:44:09.246Z,483.0000
2019-05-14T01:44:21.210Z,492.0000
2019-05-14T01:44:28.488Z,506.0000
2019-05-14T01:44:41.089Z,502.0000
2019-05-14T01:44:51.685Z,506.0000
2019-05-14T01:44:58.242Z,502.0000
2019-05-14T01:45:23.533Z,489.0000
2019-05-14T01:45:25.077Z,491.0000
2019-05-14T01:45:31.457Z,490.0000
2019-05-14T01:45:41.733Z,495.0000
2019-05-14T01:45:49.239Z,492.0000
2019-05-14T01:46:02.002Z,495.0000
2019-05-14T01:46:09.257Z,495.0000
2019-05-14T01:46:21.024Z,493.0000
2019-05-14T01:46:28.233Z,502.0000
2019-05-14T01:46:42.043Z,493.0000
2019-05-14T01:46:48.236Z,505.0000
2019-05-14T01:46:59.243Z,505.0000
2019-05-14T01:47:08.248Z,500.0000
2019-05-14T01:47:21.302Z,492.0000
2019-05-14T01:47:28.258Z,495.0000
2019-05-14T01:47:41.372Z,496.0000
2019-05-14T01:47:48.248Z,494.0000
2019-05-14T01:48:01.233Z,509.0000
2019-05-14T01:48:08.252Z,508.0000
2019-05-14T01:48:19.254Z,495.0000
2019-05-14T01:48:28.244Z,495.0000
2019-05-14T01:48:41.616Z,493.0000
2019-05-14T01:48:48.248Z,489.0000
2019-05-14T01:49:01.377Z,483.0000
2019-05-14T01:49:12.721Z,494.0000
2019-05-14T01:49:19.242Z,493.0000
2019-05-14T01:49:28.236Z,487.0000
2019-05-14T01:49:39.221Z,488.0000
2019-05-14T01:49:48.237Z,494.0000
2019-05-14T01:49:58.739Z,499.0000
2019-05-14T01:50:08.231Z,500.0000
2019-05-14T01:50:21.445Z,488.0000
2019-05-14T01:50:28.245Z,492.0000
2019-05-14T01:50:41.251Z,497.0000
2019-05-14T01:50:47.486Z,499.0000
2019-05-14T01:51:01.316Z,501.0000
2019-05-14T01:51:08.246Z,497.0000
2019-05-14T01:51:18.151Z,483.0000
2019-05-14T01:51:28.256Z,501.0000
2019-05-14T01:51:39.226Z,493.0000
2019-05-14T01:51:51.052Z,488.0000
2019-05-14T01:52:01.580Z,500.0000
2019-05-14T01:52:11.271Z,498.0000
2019-05-14T01:52:21.790Z,492.0000
2019-05-14T01:52:31.788Z,497.0000
2019-05-14T01:52:38.256Z,488.0000
2019-05-14T01:52:52.034Z,494.0000
2019-05-14T01:52:58.250Z,494.0000
2019-05-14T01:53:11.411Z,502.0000
2019-05-14T01:53:18.236Z,489.0000
2019-05-14T01:53:31.256Z,486.0000
2019-05-14T01:53:38.252Z,494.0000
2019-05-14T01:53:49.261Z,490.0000
2019-05-14T01:53:58.231Z,486.0000
2019-05-14T01:54:09.231Z,493.0000
2019-05-14T01:54:18.255Z,499.0000
2019-05-14T01:54:31.524Z,497.0000
2019-05-14T01:54:38.246Z,496.0000
2019-05-14T01:54:51.329Z,505.0000
2019-05-14T01:54:58.266Z,499.0000
2019-05-14T01:55:11.216Z,498.0000
2019-05-14T01:55:18.247Z,494.0000
2019-05-14T01:55:29.258Z,495.0000
2019-05-14T01:55:38.260Z,493.0000
2019-05-14T01:55:49.254Z,502.0000
2019-05-14T01:55:58.224Z,491.0000
2019-05-14T01:56:09.244Z,481.0000
2019-05-14T01:56:18.766Z,509.0000
2019-05-14T01:56:33.847Z,493.0000
2019-05-14T01:56:38.239Z,504.0000
2019-05-14T01:56:51.312Z,513.0000
2019-05-14T01:57:01.927Z,501.0000
2019-05-14T01:57:11.306Z,501.0000
2019-05-14T01:57:18.226Z,506.0000
2019-05-14T01:57:31.213Z,497.0000